Time;durP1;ratioP1;P1;durP2;ratioP2;P2;SDS_P1;SDS_P2;PMS_P1;PMS_P2;Temp;Humidity;BMP_temperature;BMP_pressure;BME280_temperature;BME280_humidity;BME280_pressure;Samples;Min_cycle;Max_cycle;Signal;HPM_P1;HPM_P2
2021/12/02 00:01:31;;;;;;;;;0.00;0.00;;;;;5.51;75.82;99764.75;4821274;29;10514;-68
2021/12/02 00:03:58;;;;;;;;;0.00;0.00;;;;;5.43;75.35;99765.63;4819800;29;10595;-68
2021/12/02 00:06:25;;;;;;;;;0.00;0.00;;;;;5.49;75.52;99769.47;4820951;29;11308;-68
2021/12/02 00:08:52;;;;;;;;;0.00;0.00;;;;;5.46;75.84;99761.78;4821040;29;10686;-68
2021/12/02 00:11:20;;;;;;;;;0.00;0.00;;;;;5.47;75.61;99768.81;4821113;29;10510;-69
2021/12/02 00:13:59;;;;;;;;;0.25;0.00;;;;;5.38;75.30;99775.25;4820262;29;10589;-69
2021/12/02 00:22:12;;;;;;;;;0.00;0.00;;;;;5.54;76.37;99802.78;4830477;29;10455;-69
2021/12/02 00:24:40;;;;;;;;;0.00;0.00;;;;;5.38;77.02;99810.97;4839071;29;10608;-70
2021/12/02 00:27:09;;;;;;;;;0.75;0.00;;;;;5.36;80.04;99810.31;4838790;29;11419;-69
2021/12/02 00:29:38;;;;;;;;;0.00;0.00;;;;;5.34;81.91;99816.91;4843352;29;10690;-69
2021/12/02 00:32:08;;;;;;;;;0.00;0.00;;;;;4.97;83.72;99823.88;4840305;24;10749;-67
2021/12/02 00:34:41;;;;;;;;;1.00;0.00;;;;;4.83;85.41;99811.22;4873898;29;10642;-69
2021/12/02 00:37:08;;;;;;;;;1.50;0.00;;;;;5.02;86.87;99805.41;4873693;29;10536;-70
2021/12/02 00:39:35;;;;;;;;;0.00;0.00;;;;;4.95;86.31;99793.69;4875790;29;10731;-70
2021/12/02 00:42:01;;;;;;;;;0.00;0.00;;;;;4.98;86.47;99803.28;4866108;29;11541;-68
2021/12/02 00:44:31;;;;;;;;;0.00;0.00;;;;;4.88;86.49;99796.28;4876290;29;10841;-67
2021/12/02 00:47:02;;;;;;;;;0.00;0.00;;;;;4.99;86.83;99805.78;4879461;29;10782;-70
2021/12/02 00:49:29;;;;;;;;;0.00;0.00;;;;;5.04;87.36;99795.34;4879706;29;10658;-69
2021/12/02 00:51:59;;;;;;;;;0.00;0.00;;;;;4.99;87.55;99797.72;4879445;29;10658;-68
2021/12/02 00:54:27;;;;;;;;;0.00;0.00;;;;;4.98;87.42;99808.63;4879724;29;10774;-69
2021/12/02 00:56:54;;;;;;;;;0.00;0.00;;;;;5.04;88.08;99810.59;4862256;29;10739;-68
2021/12/02 00:59:22;;;;;;;;;1.25;0.00;;;;;4.90;87.88;99777.31;4878971;29;10741;-68
2021/12/02 01:01:51;;;;;;;;;0.00;0.00;;;;;5.01;88.19;99779.59;4862962;29;10666;-69
2021/12/02 01:04:22;;;;;;;;;0.00;0.00;;;;;4.94;87.65;99781.31;4879454;29;10602;-68
2021/12/02 01:06:49;;;;;;;;;0.00;0.00;;;;;4.95;87.75;99781.13;4879447;29;11420;-69
2021/12/02 01:09:16;;;;;;;;;1.00;0.00;;;;;4.89;87.62;99775.66;4879160;29;10635;-68
2021/12/02 01:11:43;;;;;;;;;0.00;0.00;;;;;4.84;87.59;99792.28;4878606;29;10582;-69
2021/12/02 01:14:10;;;;;;;;;1.00;0.00;;;;;4.80;87.63;99793.66;4877971;29;10636;-69
2021/12/02 01:16:37;;;;;;;;;0.00;0.00;;;;;4.76;87.68;99805.75;4879058;29;10675;-69
2021/12/02 01:19:06;;;;;;;;;0.00;0.00;;;;;4.78;88.55;99809.09;4877582;29;10798;-69
2021/12/02 01:21:38;;;;;;;;;0.00;0.00;;;;;4.77;88.63;99826.19;4862636;29;10695;-69
2021/12/02 01:24:06;;;;;;;;;0.25;0.00;;;;;4.57;87.93;99814.22;4879089;29;11431;-69
2021/12/02 01:26:35;;;;;;;;;0.00;0.00;;;;;4.59;88.08;99809.53;4878834;29;10717;-69
2021/12/02 01:29:04;;;;;;;;;0.50;0.00;;;;;4.60;88.00;99803.16;4876911;29;10837;-68
2021/12/02 01:31:34;;;;;;;;;0.00;0.00;;;;;4.58;88.14;99808.69;4865253;29;10833;-69
2021/12/02 01:34:03;;;;;;;;;0.00;0.00;;;;;4.65;88.48;99806.13;4877330;29;10795;-69
2021/12/02 01:36:41;;;;;;;;;0.00;0.00;;;;;4.62;88.73;99801.13;4879097;29;10712;-69
2021/12/02 01:39:09;;;;;;;;;0.00;0.00;;;;;4.63;89.34;99800.94;4878682;29;10796;-69
2021/12/02 01:41:44;;;;;;;;;0.00;0.00;;;;;4.59;88.79;99802.31;4878969;29;10740;-69
2021/12/02 01:44:13;;;;;;;;;0.00;0.00;;;;;4.60;88.45;99798.63;4878660;29;10879;-68
2021/12/02 01:46:42;;;;;;;;;0.00;0.00;;;;;4.65;88.47;99814.19;4862194;29;10712;-68
2021/12/02 01:49:10;;;;;;;;;0.00;0.00;;;;;4.61;89.04;99819.06;4877921;29;10806;-69
2021/12/02 01:51:40;;;;;;;;;0.00;0.00;;;;;4.62;89.21;99822.56;4878447;29;11626;-69
2021/12/02 01:54:11;;;;;;;;;0.00;0.00;;;;;4.60;88.34;99805.84;4878216;29;10736;-67
2021/12/02 01:56:52;;;;;;;;;0.00;0.00;;;;;4.56;88.31;99818.75;4877981;29;11472;-67
2021/12/02 01:59:22;;;;;;;;;0.00;0.00;;;;;4.59;87.23;99834.47;4878200;29;10803;-67
2021/12/02 02:01:52;;;;;;;;;0.00;0.00;;;;;4.60;86.75;99827.28;4877545;29;10700;-69
2021/12/02 02:04:21;;;;;;;;;1.00;0.00;;;;;4.63;86.95;99822.41;4878156;29;10910;-70
2021/12/02 02:06:57;;;;;;;;;0.00;0.00;;;;;4.63;86.90;99809.00;4877944;29;10976;-71
2021/12/02 02:09:34;;;;;;;;;0.25;0.00;;;;;4.76;87.07;99815.63;4878136;29;10758;-69
2021/12/02 02:12:03;;;;;;;;;0.00;0.00;;;;;4.72;86.61;99806.28;4876248;29;10809;-70
2021/12/02 02:14:30;;;;;;;;;0.00;0.00;;;;;4.75;87.27;99817.50;4878239;29;10618;-70
2021/12/02 02:16:59;;;;;;;;;0.00;0.00;;;;;4.74;87.29;99818.50;4878111;29;11619;-68
2021/12/02 02:19:30;;;;;;;;;0.00;0.00;;;;;4.66;87.44;99813.16;4877958;29;10829;-68
2021/12/02 02:21:58;;;;;;;;;0.00;0.00;;;;;4.69;87.92;99826.22;4877766;29;11417;-70
2021/12/02 02:24:25;;;;;;;;;0.00;0.00;;;;;4.71;88.36;99836.75;4877028;29;10738;-69
2021/12/02 02:26:52;;;;;;;;;1.00;0.00;;;;;4.74;88.88;99825.72;4883137;29;10797;-69
2021/12/02 02:29:18;;;;;;;;;0.00;0.00;;;;;4.65;88.65;99816.84;4877627;29;10771;-70
2021/12/02 02:31:45;;;;;;;;;0.00;0.00;;;;;4.66;88.72;99805.13;4881517;29;10849;-69
2021/12/02 02:34:12;;;;;;;;;1.50;0.00;;;;;4.40;87.19;99816.16;4876680;29;11897;-69
2021/12/02 02:36:50;;;;;;;;;0.00;0.00;;;;;4.47;88.00;99819.81;4877911;29;10955;-69
2021/12/02 02:39:18;;;;;;;;;0.00;0.00;;;;;4.61;88.73;99815.53;4876314;29;10832;-69
2021/12/02 02:41:46;;;;;;;;;0.00;0.00;;;;;4.63;88.93;99816.19;4877614;29;10707;-69
2021/12/02 02:44:13;;;;;;;;;0.00;0.00;;;;;4.67;89.24;99816.69;4877544;29;10880;-69
2021/12/02 02:46:41;;;;;;;;;0.00;0.00;;;;;4.68;89.73;99824.53;4877387;29;10662;-68
2021/12/02 02:49:12;;;;;;;;;0.00;0.00;;;;;4.54;89.14;99841.38;4874745;29;10792;-69
2021/12/02 02:51:41;;;;;;;;;0.00;0.00;;;;;4.46;88.95;99853.00;4864130;29;10692;-70
2021/12/02 02:54:10;;;;;;;;;0.00;0.00;;;;;4.56;89.15;99850.09;4877328;29;10652;-69
2021/12/02 02:56:44;;;;;;;;;1.50;0.00;;;;;4.55;88.67;99848.41;4877393;29;10741;-69
2021/12/02 02:59:32;;;;;;;;;0.00;0.00;;;;;4.66;89.33;99860.59;4875546;29;10755;-69
2021/12/02 03:07:22;;;;;;;;;0.00;0.00;;;;;4.60;88.02;99835.31;4875486;29;10667;-69
2021/12/02 03:09:54;;;;;;;;;0.00;0.00;;;;;4.58;87.43;99838.19;4876943;29;10808;-70
2021/12/02 03:17:17;;;;;;;;;1.00;0.00;;;;;4.55;87.38;99838.53;4876140;29;10690;-69
2021/12/02 03:19:45;;;;;;;;;1.75;0.75;;;;;4.61;87.73;99840.50;4878404;29;10731;-69
2021/12/02 03:22:14;;;;;;;;;0.00;0.00;;;;;4.58;88.37;99842.69;4876805;29;10808;-70
2021/12/02 03:24:41;;;;;;;;;0.00;0.00;;;;;4.57;88.82;99857.94;4877005;29;10788;-69
2021/12/02 03:27:07;;;;;;;;;0.00;0.00;;;;;4.32;87.48;99859.88;4876215;29;10757;-69
2021/12/02 03:29:34;;;;;;;;;0.00;0.00;;;;;4.40;87.63;99861.69;4876728;29;10726;-69
2021/12/02 03:32:01;;;;;;;;;0.00;0.00;;;;;4.35;87.54;99861.38;4875314;29;10772;-70
2021/12/02 03:34:28;;;;;;;;;0.00;0.00;;;;;4.17;87.64;99866.13;4876669;29;10819;-70
2021/12/02 03:36:55;;;;;;;;;0.00;0.00;;;;;4.17;88.31;99861.59;4876624;29;10705;-69
2021/12/02 03:39:22;;;;;;;;;0.00;0.00;;;;;4.12;88.73;99865.81;4876177;29;10877;-70
2021/12/02 03:41:48;;;;;;;;;0.00;0.00;;;;;4.18;89.67;99865.94;4876809;29;11728;-70
2021/12/02 03:44:15;;;;;;;;;0.00;0.00;;;;;4.15;89.85;99852.91;4859891;29;10936;-70
2021/12/02 03:46:41;;;;;;;;;0.00;0.00;;;;;4.20;89.68;99847.84;4875318;29;10871;-69
2021/12/02 03:49:08;;;;;;;;;0.75;0.00;;;;;4.18;89.82;99839.16;4874819;29;10917;-69
2021/12/02 03:51:35;;;;;;;;;0.00;0.00;;;;;4.19;90.07;99838.16;4876655;29;10788;-69
2021/12/02 03:54:02;;;;;;;;;0.00;0.00;;;;;4.17;90.22;99847.38;4859742;29;10880;-69
2021/12/02 03:56:29;;;;;;;;;0.00;0.00;;;;;4.14;90.54;99843.19;4876451;29;11685;-70
2021/12/02 03:58:56;;;;;;;;;0.00;0.00;;;;;4.06;89.90;99851.28;4876372;29;10787;-69
2021/12/02 04:01:23;;;;;;;;;0.00;0.00;;;;;4.07;90.58;99860.97;4876509;29;10887;-69
2021/12/02 04:03:50;;;;;;;;;0.00;0.00;;;;;4.08;91.03;99857.28;4875313;29;10936;-69
2021/12/02 04:06:17;;;;;;;;;0.00;0.00;;;;;3.92;90.68;99860.00;4882926;29;11012;-69
2021/12/02 04:11:39;;;;;;;;;0.00;0.00;;;;;3.88;91.20;99851.47;4876269;29;10877;-69
2021/12/02 04:14:26;;;;;;;;;0.00;0.00;;;;;3.94;91.38;99857.97;4876044;29;10867;-69
2021/12/02 04:16:55;;;;;;;;;0.00;0.00;;;;;3.96;91.21;99859.47;4874436;29;11067;-69
2021/12/02 04:19:23;;;;;;;;;0.00;0.00;;;;;4.00;91.29;99855.47;4876021;29;10856;-70
2021/12/02 04:21:51;;;;;;;;;0.00;0.00;;;;;3.95;91.13;99855.13;4876345;29;10928;-69
2021/12/02 04:24:18;;;;;;;;;0.00;0.00;;;;;3.82;90.47;99854.00;4876385;29;10697;-69
2021/12/02 04:26:45;;;;;;;;;0.00;0.00;;;;;3.90;91.20;99849.44;4874336;29;10804;-69
2021/12/02 04:29:12;;;;;;;;;0.75;0.00;;;;;3.86;90.85;99842.78;4876113;29;11774;-69
2021/12/02 04:31:45;;;;;;;;;1.00;0.00;;;;;3.88;91.19;99851.47;4875942;29;10872;-70
2021/12/02 04:34:12;;;;;;;;;0.00;0.00;;;;;3.91;91.44;99852.97;4876202;29;11816;-69
2021/12/02 04:36:39;;;;;;;;;0.00;0.00;;;;;3.92;91.49;99849.28;4876027;29;11655;-69
2021/12/02 04:39:06;;;;;;;;;0.00;0.00;;;;;3.92;91.91;99854.63;4874600;29;10909;-69
2021/12/02 04:41:33;;;;;;;;;0.50;0.00;;;;;3.88;91.42;99851.47;4874889;29;11055;-69
2021/12/02 04:43:59;;;;;;;;;1.25;0.00;;;;;3.78;91.23;99858.03;4875876;29;10894;-69
2021/12/02 04:46:26;;;;;;;;;0.00;0.00;;;;;3.77;91.55;99856.34;4875882;29;11402;-69
2021/12/02 04:48:52;;;;;;;;;0.00;0.00;;;;;3.69;91.79;99862.53;4859023;29;10892;-69
2021/12/02 04:51:19;;;;;;;;;0.00;0.00;;;;;3.78;92.30;99879.44;4876179;29;10883;-69
2021/12/02 04:53:45;;;;;;;;;0.00;0.00;;;;;3.75;92.00;99896.69;4875649;29;10893;-69
2021/12/02 04:56:12;;;;;;;;;0.50;0.00;;;;;3.83;93.01;99898.50;4874230;29;11576;-68
2021/12/02 04:58:38;;;;;;;;;0.00;0.00;;;;;3.76;92.38;99890.31;4882614;29;10919;-70
2021/12/02 05:01:05;;;;;;;;;0.00;0.00;;;;;3.76;92.18;99889.47;4857456;29;10898;-70
2021/12/02 05:03:32;;;;;;;;;0.00;0.00;;;;;3.68;92.12;99893.81;4850330;29;10893;-69
2021/12/02 05:05:58;;;;;;;;;0.00;0.00;;;;;3.58;90.99;99889.66;4874871;29;11733;-69
2021/12/02 05:08:24;;;;;;;;;0.00;0.00;;;;;3.50;90.34;99887.81;4875408;29;10985;-69
2021/12/02 05:10:51;;;;;;;;;0.00;0.00;;;;;3.49;90.58;99893.34;4874582;29;10981;-70
2021/12/02 05:13:17;;;;;;;;;0.75;0.00;;;;;3.64;90.91;99897.84;4875845;29;10850;-69
2021/12/02 05:15:44;;;;;;;;;0.00;0.00;;;;;3.58;90.68;99905.72;4875735;29;11005;-69
2021/12/02 05:18:11;;;;;;;;;0.00;0.00;;;;;3.64;90.88;99907.72;4875079;29;10970;-69
2021/12/02 05:20:37;;;;;;;;;0.00;0.00;;;;;3.65;90.36;99915.56;4873709;29;11743;-70
2021/12/02 05:23:04;;;;;;;;;0.00;0.00;;;;;3.77;90.29;99908.06;4875664;29;11133;-70
2021/12/02 05:25:30;;;;;;;;;0.00;0.00;;;;;3.71;90.30;99898.81;4873556;29;10946;-69
2021/12/02 05:27:57;;;;;;;;;1.00;1.00;;;;;3.78;89.94;99893.66;4879774;29;11099;-69
2021/12/02 05:30:23;;;;;;;;;0.00;0.00;;;;;3.70;89.03;99881.09;4875222;29;11073;-69
2021/12/02 05:32:49;;;;;;;;;0.00;0.00;;;;;3.68;89.13;99885.78;4878105;29;11038;-70
2021/12/02 05:35:16;;;;;;;;;0.00;0.00;;;;;3.73;89.11;99887.16;4878937;29;12081;-69
2021/12/02 05:37:42;;;;;;;;;0.00;0.00;;;;;3.75;89.48;99880.63;4846605;29;11065;-69
2021/12/02 05:40:09;;;;;;;;;0.00;0.00;;;;;3.71;89.49;99874.75;4878433;29;11079;-69
2021/12/02 05:42:37;;;;;;;;;0.00;0.00;;;;;3.74;89.55;99881.63;4876822;29;11039;-70
2021/12/02 05:45:04;;;;;;;;;0.00;0.00;;;;;3.67;88.92;99868.06;4878137;29;11113;-69
2021/12/02 05:47:30;;;;;;;;;0.00;0.00;;;;;3.66;89.19;99866.38;4888161;29;11122;-70
2021/12/02 05:49:57;;;;;;;;;0.00;0.00;;;;;3.63;88.80;99860.53;4864119;29;11045;-70
2021/12/02 05:52:23;;;;;;;;;0.00;0.00;;;;;3.66;88.79;99866.38;4878294;29;10922;-70
2021/12/02 05:54:50;;;;;;;;;0.00;0.00;;;;;3.67;89.09;99869.91;4878490;29;11010;-69
2021/12/02 05:57:16;;;;;;;;;0.00;0.00;;;;;3.65;88.82;99877.25;4877209;29;11156;-69
2021/12/02 05:59:43;;;;;;;;;0.00;0.00;;;;;3.66;89.15;99879.75;4878256;29;11048;-69
2021/12/02 06:02:10;;;;;;;;;0.00;0.00;;;;;3.67;89.85;99876.09;4878570;29;11003;-69
2021/12/02 06:04:39;;;;;;;;;0.00;0.00;;;;;3.69;89.66;99887.44;4878282;29;10858;-70
2021/12/02 06:07:05;;;;;;;;;0.00;0.00;;;;;3.68;89.49;99890.31;4878461;29;11050;-69
2021/12/02 06:09:32;;;;;;;;;0.00;0.00;;;;;3.65;89.75;99888.81;4878154;29;10851;-69
2021/12/02 06:11:58;;;;;;;;;0.00;0.00;;;;;3.66;89.68;99890.47;4877324;29;10987;-69
2021/12/02 06:14:25;;;;;;;;;0.00;0.00;;;;;3.74;90.48;99892.31;4878352;29;11029;-69
2021/12/02 06:16:52;;;;;;;;;0.00;0.00;;;;;3.68;90.21;99887.63;4879467;29;11112;-70
2021/12/02 06:19:18;;;;;;;;;0.00;0.00;;;;;3.85;90.57;99902.69;4879928;29;10890;-69
2021/12/02 06:21:44;;;;;;;;;0.00;0.00;;;;;3.87;89.88;99905.19;4878489;29;11058;-69
2021/12/02 06:24:11;;;;;;;;;0.00;0.00;;;;;3.89;90.37;99906.69;4876712;29;10996;-70
2021/12/02 06:26:38;;;;;;;;;0.00;0.00;;;;;3.87;90.51;99910.53;4877945;29;12100;-69
2021/12/02 06:29:05;;;;;;;;;0.00;0.00;;;;;3.84;90.23;99902.84;4860849;29;11043;-69
2021/12/02 06:31:31;;;;;;;;;1.00;0.50;;;;;3.82;90.36;99896.84;4875344;29;11090;-70
2021/12/02 06:33:58;;;;;;;;;1.00;0.00;;;;;3.81;90.52;99905.88;4868917;29;10986;-69
2021/12/02 06:36:25;;;;;;;;;0.00;0.00;;;;;3.84;90.64;99905.53;4877048;29;11126;-69
2021/12/02 06:38:59;;;;;;;;;2.00;0.00;;;;;3.70;90.74;99926.59;4877219;29;11194;-70
2021/12/02 06:41:25;;;;;;;;;0.00;0.00;;;;;3.45;89.40;99927.59;4877772;29;11049;-69
2021/12/02 06:43:52;;;;;;;;;0.00;0.00;;;;;3.22;89.31;99947.94;4876000;29;11107;-70
2021/12/02 06:46:18;;;;;;;;;0.00;0.00;;;;;3.09;89.71;99935.06;4876751;29;11209;-69
2021/12/02 06:48:47;;;;;;;;;0.00;0.00;;;;;3.08;90.55;99923.53;4877079;29;11216;-69
2021/12/02 06:51:14;;;;;;;;;0.00;0.00;;;;;3.13;90.76;99924.88;4877499;29;11087;-69
2021/12/02 06:53:42;;;;;;;;;2.00;0.00;;;;;3.15;90.77;99928.22;4875889;29;11054;-69
2021/12/02 06:56:09;;;;;;;;;0.00;0.00;;;;;3.23;91.06;99937.09;4860743;29;11289;-69
2021/12/02 06:58:36;;;;;;;;;0.00;0.00;;;;;3.29;91.15;99946.31;4876872;29;11114;-69
2021/12/02 07:01:03;;;;;;;;;0.00;0.00;;;;;3.32;91.59;99954.00;4874975;29;11072;-69
2021/12/02 07:03:30;;;;;;;;;0.00;0.00;;;;;3.30;91.09;99970.22;4875495;29;11738;-68
2021/12/02 07:05:56;;;;;;;;;0.00;0.00;;;;;3.29;91.07;99981.09;4877394;29;11171;-69
2021/12/02 07:08:23;;;;;;;;;1.00;0.00;;;;;3.17;91.42;99980.53;4866615;29;11779;-69
2021/12/02 07:10:50;;;;;;;;;0.00;0.00;;;;;3.15;91.00;99992.41;4860286;29;11214;-69
2021/12/02 07:13:17;;;;;;;;;0.00;0.00;;;;;3.19;91.65;99985.72;4858202;29;10980;-69
2021/12/02 07:15:51;;;;;;;;;0.00;0.00;;;;;3.04;90.79;99985.53;4875488;29;11011;-69
2021/12/02 07:18:18;;;;;;;;;0.00;0.00;;;;;2.95;91.01;99989.13;4872527;29;11149;-69
2021/12/02 07:20:47;;;;;;;;;0.25;0.00;;;;;2.95;91.43;99989.97;4876641;29;11240;-69
2021/12/02 07:23:19;;;;;;;;;0.00;0.00;;;;;3.08;92.07;99997.56;4865555;29;11038;-69
2021/12/02 07:25:48;;;;;;;;;0.00;0.00;;;;;3.06;91.92;99988.88;4872329;29;11099;-69
2021/12/02 07:28:16;;;;;;;;;2.00;0.00;;;;;3.07;91.80;99988.69;4876422;29;11118;-69
2021/12/02 07:30:44;;;;;;;;;0.00;0.00;;;;;3.11;91.59;99985.69;4875795;29;11099;-69
2021/12/02 07:33:13;;;;;;;;;0.00;0.00;;;;;3.11;91.74;99986.53;4876351;29;10958;-69
2021/12/02 07:35:41;;;;;;;;;0.00;0.00;;;;;3.12;91.37;99985.53;4860367;29;10958;-70
2021/12/02 07:38:08;;;;;;;;;0.00;0.00;;;;;3.31;92.63;99990.63;4876133;29;11206;-69
2021/12/02 07:40:36;;;;;;;;;0.00;0.00;;;;;3.23;91.95;100001.31;4851386;29;11126;-70
2021/12/02 07:43:03;;;;;;;;;0.00;0.00;;;;;4.09;96.02;100005.44;4878522;29;11115;-70
2021/12/02 07:45:35;;;;;;;;;0.00;0.00;;;;;3.46;92.21;100008.69;4871174;29;11885;-70
2021/12/02 07:48:04;;;;;;;;;0.00;0.00;;;;;3.33;91.60;100022.56;4872783;29;11097;-70
2021/12/02 07:50:31;;;;;;;;;1.00;0.00;;;;;3.30;91.57;100014.84;4864073;29;11207;-70
2021/12/02 07:53:02;;;;;;;;;0.00;0.00;;;;;3.32;91.80;100019.03;4874529;29;10983;-69
2021/12/02 07:55:30;;;;;;;;;0.00;0.00;;;;;3.29;92.01;100032.75;4883506;29;11019;-70
2021/12/02 07:57:57;;;;;;;;;0.00;0.00;;;;;3.26;91.77;100035.75;4863195;29;11115;-70
2021/12/02 08:00:27;;;;;;;;;1.00;0.00;;;;;3.29;92.15;100037.25;4874217;29;11058;-70
2021/12/02 08:02:55;;;;;;;;;0.25;0.00;;;;;3.36;92.12;100040.94;4872812;29;11256;-70
2021/12/02 08:05:23;;;;;;;;;0.00;0.00;;;;;3.39;92.17;100044.13;4874118;29;11111;-70
2021/12/02 08:07:51;;;;;;;;;0.00;0.00;;;;;3.62;93.34;100047.03;4873078;29;10950;-70
2021/12/02 08:10:19;;;;;;;;;0.00;0.00;;;;;3.50;92.08;100053.72;4873366;29;11142;-69
2021/12/02 08:12:48;;;;;;;;;0.50;0.00;;;;;3.49;92.04;100056.56;4871684;29;11020;-70
2021/12/02 08:15:21;;;;;;;;;0.00;0.00;;;;;3.51;92.07;100066.09;4876206;29;10961;-70
2021/12/02 08:17:48;;;;;;;;;0.00;0.00;;;;;3.57;91.62;100068.09;4869096;29;11152;-70
2021/12/02 08:20:17;;;;;;;;;0.00;0.00;;;;;3.54;90.95;100068.44;4883044;29;11093;-69
2021/12/02 08:22:44;;;;;;;;;0.00;0.00;;;;;3.48;91.06;100073.63;4872678;29;11239;-71
2021/12/02 08:25:12;;;;;;;;;0.00;0.00;;;;;3.58;91.03;100076.97;4872942;29;10968;-70
2021/12/02 08:27:40;;;;;;;;;0.00;0.00;;;;;3.43;90.85;100073.22;4875773;29;11125;-71
2021/12/02 08:30:10;;;;;;;;;0.00;0.00;;;;;3.55;91.50;100063.91;4872436;29;11020;-69
2021/12/02 08:32:40;;;;;;;;;0.00;0.00;;;;;3.61;91.70;100061.44;4871130;29;11155;-71
2021/12/02 08:35:08;;;;;;;;;1.00;1.00;;;;;3.59;91.72;100058.06;4879348;29;11059;-69
2021/12/02 08:37:38;;;;;;;;;0.00;0.00;;;;;3.62;92.02;100059.59;4873450;29;11151;-69
2021/12/02 08:40:05;;;;;;;;;1.00;0.00;;;;;3.62;91.96;100054.22;4870152;29;11211;-69
2021/12/02 08:42:32;;;;;;;;;0.00;0.00;;;;;3.61;91.91;100061.44;4873174;29;11044;-69
2021/12/02 08:45:01;;;;;;;;;0.25;0.25;;;;;3.60;91.58;100069.63;4873822;29;11042;-69
2021/12/02 08:47:28;;;;;;;;;0.00;0.00;;;;;3.62;91.65;100081.84;4876451;29;10995;-69
2021/12/02 08:49:56;;;;;;;;;0.00;0.00;;;;;3.61;91.50;100084.69;4873513;29;10938;-70
2021/12/02 08:52:26;;;;;;;;;0.00;0.00;;;;;3.59;91.51;100090.19;4871893;29;10957;-69
2021/12/02 08:54:53;;;;;;;;;0.25;0.25;;;;;3.68;91.92;100096.41;4873550;29;11072;-69
2021/12/02 08:57:40;;;;;;;;;0.00;0.00;;;;;3.77;92.63;100114.19;4871984;29;11061;-68
2021/12/02 09:00:10;;;;;;;;;0.00;0.00;;;;;3.70;91.60;100132.69;4879715;29;11094;-69
2021/12/02 09:02:36;;;;;;;;;1.50;0.25;;;;;3.44;90.36;100131.09;4871858;29;11220;-68
2021/12/02 09:05:04;;;;;;;;;0.00;0.00;;;;;3.50;90.82;100143.84;4868527;29;11043;-69
2021/12/02 09:07:32;;;;;;;;;2.00;0.75;;;;;3.40;91.05;100131.41;4866343;29;11183;-69
2021/12/02 09:09:58;;;;;;;;;0.00;0.00;;;;;3.32;90.79;100142.09;4877064;29;11170;-69
2021/12/02 09:12:25;;;;;;;;;0.00;0.00;;;;;3.32;91.29;100143.94;4876316;29;11039;-69
2021/12/02 09:14:52;;;;;;;;;0.00;0.00;;;;;3.35;91.69;100151.63;4883508;29;11115;-69
2021/12/02 09:17:20;;;;;;;;;0.00;0.00;;;;;3.36;91.55;100145.28;4866491;29;11197;-69
2021/12/02 09:19:48;;;;;;;;;0.00;0.00;;;;;3.30;91.46;100138.75;4864810;29;11254;-69
2021/12/02 09:22:14;;;;;;;;;0.00;0.00;;;;;3.29;91.20;100141.56;4876662;29;11030;-69
2021/12/02 09:24:41;;;;;;;;;0.00;0.00;;;;;3.29;91.41;100150.44;4874717;29;11155;-69
2021/12/02 09:27:07;;;;;;;;;1.00;0.00;;;;;3.37;91.82;100147.78;4873969;29;11209;-69
2021/12/02 09:29:34;;;;;;;;;0.00;0.00;;;;;3.39;92.17;100150.31;4873936;29;11309;-69
2021/12/02 09:32:01;;;;;;;;;0.50;0.00;;;;;3.41;92.16;100142.97;4867154;29;11238;-70
2021/12/02 09:34:28;;;;;;;;;2.25;0.00;;;;;3.46;92.16;100147.81;4871271;29;11134;-70
2021/12/02 09:36:56;;;;;;;;;0.00;0.00;;;;;3.53;nan;100157.75;4883029;29;11102;-69
2021/12/02 09:39:29;;;;;;;;;0.00;0.00;;;;;3.65;92.65;100161.81;4864164;29;11050;-69
2021/12/02 09:41:56;;;;;;;;;0.00;0.00;;;;;3.74;92.66;100172.56;4875807;29;11046;-70
2021/12/02 09:44:22;;;;;;;;;0.50;0.00;;;;;3.83;93.02;100174.25;4874769;29;11054;-70
2021/12/02 09:46:49;;;;;;;;;0.50;0.50;;;;;3.84;92.84;100178.59;4873371;29;11101;-70
2021/12/02 09:49:16;;;;;;;;;1.00;1.00;;;;;3.76;92.42;100189.28;4876634;29;11153;-70
2021/12/02 09:51:59;;;;;;;;;1.00;1.00;;;;;3.68;92.46;100192.75;4866327;29;11160;-70
2021/12/02 09:54:56;;;;;;;;;1.00;1.00;;;;;3.71;93.26;100203.97;4869408;29;11145;-70
2021/12/02 09:57:16;;;;;;;;;2.00;0.00;;;;;3.75;93.56;100222.41;4875269;29;11059;-70
2021/12/02 09:59:51;;;;;;;;;0.00;0.00;;;;;3.75;93.62;100231.28;4875762;29;11247;-70
2021/12/02 10:02:20;;;;;;;;;0.00;0.00;;;;;3.60;93.19;100243.56;4879150;29;11253;-70
2021/12/02 10:04:57;;;;;;;;;0.00;0.00;;;;;3.33;92.23;100256.13;4875960;29;11022;-71
2021/12/02 10:10:11;;;;;;;;;0.00;0.00;;;;;3.26;92.46;100239.03;4875855;29;11686;-71
2021/12/02 10:12:48;;;;;;;;;0.00;0.00;;;;;3.19;92.01;100231.78;4879627;29;11139;-71
2021/12/02 10:15:16;;;;;;;;;0.25;0.00;;;;;3.14;91.99;100228.72;4875883;29;11802;-69
2021/12/02 10:17:49;;;;;;;;;0.00;0.00;;;;;3.04;91.81;100226.16;4883209;29;11032;-70
2021/12/02 10:23:13;;;;;;;;;0.00;0.00;;;;;3.19;92.91;100216.56;4875601;29;10930;-69
2021/12/02 10:25:46;;;;;;;;;0.00;0.00;;;;;3.20;92.82;100212.06;4871761;29;11090;-70
2021/12/02 10:28:15;;;;;;;;;0.00;0.00;;;;;3.30;93.50;100213.66;4875754;29;11060;-69
2021/12/02 10:30:50;;;;;;;;;0.00;0.00;;;;;3.42;93.75;100224.06;4878473;29;11129;-69
2021/12/02 10:33:37;;;;;;;;;0.00;0.00;;;;;3.46;93.63;100231.63;4873404;29;11220;-69
2021/12/02 10:36:07;;;;;;;;;0.00;0.00;;;;;3.50;93.50;100233.00;4872831;29;11209;-70
2021/12/02 10:38:43;;;;;;;;;0.00;0.00;;;;;3.53;93.65;100226.50;4874832;29;11134;-69
2021/12/02 10:41:22;;;;;;;;;0.00;0.00;;;;;3.54;93.79;100222.81;4872931;29;11213;-70
2021/12/02 10:44:06;;;;;;;;;0.00;0.00;;;;;3.57;93.80;100228.69;4875021;29;11050;-69
2021/12/02 10:46:35;;;;;;;;;1.00;1.00;;;;;3.55;93.43;100227.16;4875206;29;11045;-69
2021/12/02 10:49:04;;;;;;;;;1.00;1.00;;;;;3.55;93.56;100222.66;4874937;29;11175;-69
2021/12/02 10:51:36;;;;;;;;;2.25;0.75;;;;;3.59;93.86;100231.19;4871788;29;11100;-69
2021/12/02 10:54:08;;;;;;;;;1.00;0.00;;;;;3.62;93.95;100239.75;4875465;29;11027;-69
2021/12/02 10:56:37;;;;;;;;;0.75;0.75;;;;;3.66;93.85;100250.97;4865209;29;11304;-69
2021/12/02 10:59:27;;;;;;;;;0.25;0.25;;;;;3.65;93.81;100246.63;4873420;29;11061;-69
2021/12/02 11:01:57;;;;;;;;;2.00;1.00;;;;;3.62;93.70;100257.63;4864999;29;11052;-69
2021/12/02 11:04:33;;;;;;;;;1.75;1.75;;;;;3.62;93.58;100257.63;4880479;29;11113;-70
2021/12/02 11:07:01;;;;;;;;;1.00;1.00;;;;;3.65;93.66;100258.16;4874807;29;10961;-69
2021/12/02 11:09:32;;;;;;;;;1.00;0.00;;;;;3.67;93.78;100266.88;4874813;29;11410;-69
2021/12/02 11:12:11;;;;;;;;;1.00;1.00;;;;;3.74;93.79;100279.63;4875034;29;11153;-69
2021/12/02 11:14:52;;;;;;;;;2.00;2.00;;;;;3.79;93.91;100271.97;4874831;29;11126;-70
2021/12/02 11:17:19;;;;;;;;;1.25;1.25;;;;;3.87;93.87;100269.31;4873837;29;11114;-69
2021/12/02 11:19:50;;;;;;;;;1.00;1.00;;;;;4.01;93.58;100269.56;4874610;29;11189;-69
2021/12/02 11:22:21;;;;;;;;;0.50;0.50;;;;;3.88;93.02;100271.84;4874656;29;11116;-70
2021/12/02 11:24:49;;;;;;;;;0.75;0.75;;;;;3.92;93.48;100272.34;4878138;29;11358;-70
2021/12/02 11:27:20;;;;;;;;;1.50;1.50;;;;;3.99;93.65;100276.94;4874405;29;11173;-69
2021/12/02 11:29:56;;;;;;;;;3.50;2.00;;;;;4.15;93.86;100272.63;4873463;29;11306;-69
2021/12/02 11:32:44;;;;;;;;;2.00;2.00;;;;;4.09;93.27;100266.06;4873697;29;11220;-69
2021/12/02 11:35:22;;;;;;;;;0.50;0.00;;;;;4.26;93.35;100264.31;4857844;29;11225;-69
2021/12/02 11:38:01;;;;;;;;;3.00;0.00;;;;;4.47;93.01;100261.19;4864622;29;11132;-69
2021/12/02 11:40:45;;;;;;;;;1.00;0.25;;;;;4.62;92.34;100264.88;4872679;29;10918;-69
2021/12/02 11:43:14;;;;;;;;;1.00;1.00;;;;;4.76;91.99;100260.72;4872313;29;11823;-69
2021/12/02 11:45:44;;;;;;;;;0.00;0.00;;;;;4.83;91.93;100256.38;4870530;29;11145;-69
2021/12/02 11:48:13;;;;;;;;;0.00;0.00;;;;;4.81;91.36;100259.22;4872450;29;11082;-70
2021/12/02 11:50:41;;;;;;;;;0.25;0.25;;;;;4.85;90.59;100259.72;4874418;29;11033;-70
2021/12/02 11:53:07;;;;;;;;;2.00;2.00;;;;;5.04;90.69;100258.56;4872932;29;11004;-69
2021/12/02 11:55:40;;;;;;;;;1.00;1.00;;;;;5.05;90.53;100255.72;4861770;29;11092;-68
2021/12/02 11:58:07;;;;;;;;;1.00;1.00;;;;;5.12;90.98;100269.28;4860944;29;10984;-68
2021/12/02 12:00:35;;;;;;;;;1.00;1.00;;;;;5.22;90.14;100270.81;4859837;29;10820;-68
2021/12/02 12:03:11;;;;;;;;;1.25;1.25;;;;;5.45;90.16;100275.47;4862429;29;11087;-69
2021/12/02 12:05:45;;;;;;;;;2.50;2.00;;;;;5.34;89.35;100297.28;4860412;29;10741;-71
2021/12/02 12:08:34;;;;;;;;;1.00;1.00;;;;;5.27;90.27;100293.63;4861865;29;11347;-68
2021/12/02 12:11:24;;;;;;;;;2.00;2.00;;;;;5.08;90.21;100305.50;4862096;29;11474;-68
2021/12/02 12:13:50;;;;;;;;;2.00;2.00;;;;;4.91;88.52;100291.22;4862289;29;10825;-70